Kezdőlap
METAR-TAF:

METAR-TAF

Repülőterek :

Whale Cove, Nunavut, Kanada

földrajzi szélesség: 62-14N, földrajzi hosszúság: 092-36W, magasság: 20 m

Jelenlegi meteorológiai megfigyelések

A jelentés 40 perccel ezelõtt készült, 17:00 UTC
Déli szél 16 kt széllökések: 22 kt
Hőmérséklet -14°C
Páratartalom 85%
Légköri nyomás 1015 hPa
Látótávolság: 8.0 km
Borult 900 lábon
enyhe havazás, alacsony hófúvás

METAR: CYXN 101700Z 18016G22KT 5SM -SN DRSN OVC009 M14/M16 A2998 RMK SC8 SLP156

Idő: 11:40 (17:40 UTC)


TAF: hiányzik

Meteorológiai megfigyelések és előrejelzések több, mint 4000 repülőtéren (METAR és TAF jelentéseket).

A térképen piros és sárga pontok jelzik az elérhető meteorológiai állomásokat.

Mozgassa az egeret a pont fölött, hogy megjelenjen az állomás neve.

Azután kattintson az időjárási megfigyelések és előrejelzések megtekintéséhez.

A térkép megváltoztatása: kattintson a fekete keresztel jelölt zöld gombra ráközelítéshez, a vonallal jelölt zöld gombra távolításhoz, vagy a zöld nyilakra a szomszédos térképek eléréséhez.


METAR-TAF: